Time;durP1;ratioP1;P1;durP2;ratioP2;P2;SDS_P1;SDS_P2;PMS_P1;PMS_P2;Temp;Humidity;BMP_temperature;BMP_pressure;BME280_temperature;BME280_humidity;BME280_pressure;Samples;Min_cycle;Max_cycle;Signal;HPM_P1;HPM_P2
2021/06/17 00:00:10;;;;;;;6.28;2.42;;;;;;;;;;5015757;28;20038;-49
2021/06/17 00:02:36;;;;;;;4.35;2.85;;;;;;;;;;5018011;28;20069;-49
2021/06/17 00:05:03;;;;;;;7.35;2.80;;;;;;;;;;5017881;28;20064;-48
2021/06/17 00:07:29;;;;;;;5.82;2.85;;;;;;;;;;5018108;28;20132;-48
2021/06/17 00:09:55;;;;;;;3.72;2.67;;;;;;;;;;5018477;28;20509;-50
2021/06/17 00:12:21;;;;;;;5.72;3.38;;;;;;;;;;5018588;28;20033;-50
2021/06/17 00:14:47;;;;;;;4.38;2.72;;;;;;;;;;5018196;28;20021;-52
2021/06/17 00:17:13;;;;;;;4.18;2.78;;;;;;;;;;5019763;28;20026;-50
2021/06/17 00:19:39;;;;;;;7.47;3.10;;;;;;;;;;5017877;28;20030;-54
2021/06/17 00:22:05;;;;;;;5.65;3.15;;;;;;;;;;5017911;28;20026;-49
2021/06/17 00:24:31;;;;;;;6.07;3.50;;;;;;;;;;5017761;28;20649;-48
2021/06/17 00:26:57;;;;;;;6.53;3.47;;;;;;;;;;5017901;28;20033;-48
2021/06/17 00:29:23;;;;;;;4.43;3.22;;;;;;;;;;5018505;28;20030;-49
2021/06/17 00:31:49;;;;;;;6.63;3.35;;;;;;;;;;5018056;28;20573;-49
2021/06/17 00:34:14;;;;;;;8.80;3.70;;;;;;;;;;5017984;28;20113;-48
2021/06/17 00:36:41;;;;;;;7.78;3.72;;;;;;;;;;5017925;28;20143;-48
2021/06/17 00:39:08;;;;;;;5.38;3.42;;;;;;;;;;5018213;28;20407;-48
2021/06/17 00:41:35;;;;;;;4.75;3.60;;;;;;;;;;5017346;28;20041;-48
2021/06/17 00:44:01;;;;;;;5.65;4.32;;;;;;;;;;5018480;28;20030;-50
2021/06/17 00:46:27;;;;;;;6.50;4.25;;;;;;;;;;5017575;28;20034;-48
2021/06/17 00:48:53;;;;;;;5.88;3.90;;;;;;;;;;5022343;28;20029;-51
2021/06/17 00:51:19;;;;;;;6.28;4.40;;;;;;;;;;5018056;28;20105;-52
2021/06/17 00:53:45;;;;;;;7.47;4.50;;;;;;;;;;5018225;28;20026;-51
2021/06/17 00:56:11;;;;;;;5.30;4.20;;;;;;;;;;5017774;28;20068;-52
2021/06/17 00:58:37;;;;;;;8.73;4.63;;;;;;;;;;5019381;28;20077;-54
2021/06/17 01:01:03;;;;;;;9.02;4.80;;;;;;;;;;5018778;28;20038;-48
2021/06/17 01:03:29;;;;;;;9.23;5.15;;;;;;;;;;5018352;28;20037;-50
2021/06/17 01:05:56;;;;;;;6.65;4.07;;;;;;;;;;5017433;28;20040;-47
2021/06/17 01:08:46;;;;;;;7.07;4.95;;;;;;;;;;5018076;28;20469;-48
2021/06/17 01:11:12;;;;;;;6.80;5.05;;;;;;;;;;5018364;28;20462;-47
2021/06/17 01:13:47;;;;;;;7.15;4.60;;;;;;;;;;5014878;28;20030;-47
2021/06/17 01:16:25;;;;;;;8.48;4.70;;;;;;;;;;5015058;28;20026;-47
2021/06/17 01:18:53;;;;;;;10.07;5.03;;;;;;;;;;5010644;28;20133;-48
2021/06/17 01:21:30;;;;;;;8.15;4.90;;;;;;;;;;5016054;28;20033;-48
2021/06/17 01:23:57;;;;;;;7.93;5.15;;;;;;;;;;5013574;28;20036;-47
2021/06/17 01:26:31;;;;;;;7.57;5.05;;;;;;;;;;5013687;28;20028;-47
2021/06/17 01:28:59;;;;;;;9.88;5.15;;;;;;;;;;5014338;28;20464;-47
2021/06/17 01:31:26;;;;;;;8.25;4.88;;;;;;;;;;5014353;28;20198;-47
2021/06/17 01:33:53;;;;;;;7.95;4.90;;;;;;;;;;5014484;28;20034;-47
2021/06/17 01:36:24;;;;;;;9.40;5.85;;;;;;;;;;5013314;28;20076;-47
2021/06/17 01:38:54;;;;;;;9.90;5.43;;;;;;;;;;5013244;28;20041;-48
2021/06/17 01:41:21;;;;;;;7.85;5.45;;;;;;;;;;5012427;28;20172;-49
2021/06/17 01:43:48;;;;;;;7.03;5.75;;;;;;;;;;5006528;28;20614;-49
2021/06/17 01:46:14;;;;;;;10.43;6.05;;;;;;;;;;5014182;28;20033;-47
2021/06/17 01:48:41;;;;;;;9.80;6.38;;;;;;;;;;5014211;28;20115;-48
2021/06/17 01:51:08;;;;;;;9.80;6.28;;;;;;;;;;5017920;28;20367;-47
2021/06/17 01:53:35;;;;;;;11.07;5.80;;;;;;;;;;5014289;28;20168;-48
2021/06/17 01:56:02;;;;;;;13.18;6.70;;;;;;;;;;5013573;28;20138;-47
2021/06/17 01:58:29;;;;;;;9.23;6.72;;;;;;;;;;5015350;28;20484;-47
2021/06/17 02:00:56;;;;;;;8.80;6.18;;;;;;;;;;5017209;28;20057;-47
2021/06/17 02:03:22;;;;;;;12.35;6.63;;;;;;;;;;5017702;28;20026;-47
2021/06/17 02:05:49;;;;;;;11.40;6.75;;;;;;;;;;5013239;28;20030;-47
2021/06/17 02:08:16;;;;;;;17.38;6.63;;;;;;;;;;5014065;28;20033;-48
2021/06/17 02:10:43;;;;;;;10.48;7.18;;;;;;;;;;5014009;28;20018;-48
2021/06/17 02:13:11;;;;;;;9.77;6.55;;;;;;;;;;5013922;28;20498;-47
2021/06/17 02:15:38;;;;;;;9.88;6.88;;;;;;;;;;5013271;28;20101;-47
2021/06/17 02:18:04;;;;;;;9.85;6.55;;;;;;;;;;5015548;28;20040;-52
2021/06/17 02:20:30;;;;;;;8.13;6.38;;;;;;;;;;5014843;28;20552;-48
2021/06/17 02:22:59;;;;;;;8.18;6.45;;;;;;;;;;5021262;28;20040;-49
2021/06/17 02:25:27;;;;;;;10.60;7.05;;;;;;;;;;5013468;28;20034;-49
2021/06/17 02:27:54;;;;;;;9.95;6.43;;;;;;;;;;5015182;28;20369;-47
2021/06/17 02:30:21;;;;;;;10.23;7.55;;;;;;;;;;5013522;28;20030;-49
2021/06/17 02:32:49;;;;;;;10.32;7.55;;;;;;;;;;5014943;28;20160;-47
2021/06/17 02:35:19;;;;;;;9.50;7.47;;;;;;;;;;5012953;28;20033;-48
2021/06/17 02:37:46;;;;;;;9.50;7.32;;;;;;;;;;5013674;28;20091;-47
2021/06/17 02:40:12;;;;;;;10.13;6.97;;;;;;;;;;5018206;28;20099;-48
2021/06/17 02:42:39;;;;;;;13.38;8.27;;;;;;;;;;5015099;28;20571;-47
2021/06/17 02:45:06;;;;;;;16.38;8.25;;;;;;;;;;5013108;28;20037;-48
2021/06/17 02:47:33;;;;;;;12.65;7.82;;;;;;;;;;5013078;28;20121;-47
2021/06/17 02:49:59;;;;;;;14.45;7.65;;;;;;;;;;5013517;28;20497;-47
2021/06/17 02:52:25;;;;;;;9.07;7.93;;;;;;;;;;5013292;28;20417;-47
2021/06/17 02:54:51;;;;;;;13.27;7.43;;;;;;;;;;5012714;28;20030;-49
2021/06/17 02:57:35;;;;;;;13.80;7.70;;;;;;;;;;5017834;28;20079;-51
2021/06/17 03:00:09;;;;;;;11.15;7.85;;;;;;;;;;5009012;28;20147;-49
2021/06/17 03:02:35;;;;;;;10.85;7.43;;;;;;;;;;5015422;28;20038;-49
2021/06/17 03:05:18;;;;;;;13.80;8.57;;;;;;;;;;5017735;28;20462;-47
2021/06/17 03:07:50;;;;;;;14.33;8.93;;;;;;;;;;5013053;28;20096;-50
2021/06/17 03:10:16;;;;;;;15.05;8.88;;;;;;;;;;5012586;28;20105;-52
2021/06/17 03:12:43;;;;;;;9.98;7.38;;;;;;;;;;5015621;28;20030;-48
2021/06/17 03:15:11;;;;;;;13.38;8.43;;;;;;;;;;5007208;28;20026;-47
2021/06/17 03:17:39;;;;;;;13.90;8.13;;;;;;;;;;5012615;28;20220;-48
2021/06/17 03:20:07;;;;;;;13.38;8.00;;;;;;;;;;5011473;28;20045;-48
2021/06/17 03:22:33;;;;;;;12.93;8.43;;;;;;;;;;5012399;28;20057;-49
2021/06/17 03:25:02;;;;;;;17.00;9.05;;;;;;;;;;5012014;28;20025;-47
2021/06/17 03:27:29;;;;;;;14.27;8.18;;;;;;;;;;5014852;28;20377;-47
2021/06/17 03:29:55;;;;;;;14.85;9.00;;;;;;;;;;5012708;28;20026;-47
2021/06/17 03:32:21;;;;;;;11.90;8.10;;;;;;;;;;5012318;28;20133;-47
2021/06/17 03:34:48;;;;;;;12.43;8.20;;;;;;;;;;5012110;28;20105;-47
2021/06/17 03:37:15;;;;;;;12.13;8.68;;;;;;;;;;5011167;28;20037;-48
2021/06/17 03:39:42;;;;;;;12.63;9.07;;;;;;;;;;5016296;28;20105;-48
2021/06/17 03:42:09;;;;;;;14.02;9.60;;;;;;;;;;5011156;28;20037;-48
2021/06/17 03:44:36;;;;;;;14.70;9.35;;;;;;;;;;5010208;28;20112;-51
2021/06/17 03:47:02;;;;;;;15.05;8.88;;;;;;;;;;5011340;28;20120;-48
2021/06/17 03:49:29;;;;;;;20.13;9.75;;;;;;;;;;5012314;28;20026;-50
2021/06/17 03:51:58;;;;;;;12.63;9.05;;;;;;;;;;5012373;28;20072;-52
2021/06/17 03:54:27;;;;;;;12.48;9.43;;;;;;;;;;5011865;28;20028;-49
2021/06/17 03:56:54;;;;;;;12.43;8.32;;;;;;;;;;5012130;28;20029;-49
2021/06/17 03:59:22;;;;;;;12.93;9.43;;;;;;;;;;5014405;28;20033;-47
2021/06/17 04:01:48;;;;;;;11.52;8.95;;;;;;;;;;5020795;28;20388;-50
2021/06/17 04:04:14;;;;;;;12.93;8.75;;;;;;;;;;5022130;28;20034;-49
2021/06/17 04:06:41;;;;;;;13.40;8.52;;;;;;;;;;5016234;28;20041;-47
2021/06/17 04:09:07;;;;;;;13.90;9.63;;;;;;;;;;5018228;28;20030;-49
2021/06/17 04:11:33;;;;;;;14.23;9.35;;;;;;;;;;5012325;28;20172;-48
2021/06/17 04:13:59;;;;;;;12.50;9.38;;;;;;;;;;5009218;28;20097;-48
2021/06/17 04:16:26;;;;;;;13.05;9.27;;;;;;;;;;5011611;28;20164;-48
2021/06/17 04:18:54;;;;;;;11.55;8.63;;;;;;;;;;5011494;28;20029;-47
2021/06/17 04:21:21;;;;;;;10.55;8.32;;;;;;;;;;5016300;28;20124;-50
2021/06/17 04:23:57;;;;;;;13.27;9.02;;;;;;;;;;5010796;28;20033;-48
2021/06/17 04:26:25;;;;;;;14.10;10.13;;;;;;;;;;5021607;28;20044;-48
2021/06/17 04:28:53;;;;;;;19.35;10.13;;;;;;;;;;5010575;28;20060;-48
2021/06/17 04:31:20;;;;;;;12.70;9.40;;;;;;;;;;5008110;28;20100;-50
2021/06/17 04:33:47;;;;;;;15.70;8.40;;;;;;;;;;5028449;28;20036;-47
2021/06/17 04:36:13;;;;;;;12.73;8.77;;;;;;;;;;5021825;28;20113;-48
2021/06/17 04:38:39;;;;;;;13.70;9.98;;;;;;;;;;5026367;28;20029;-47
2021/06/17 04:41:09;;;;;;;13.32;9.23;;;;;;;;;;5011544;28;20033;-47
2021/06/17 04:43:35;;;;;;;13.98;9.02;;;;;;;;;;5008510;28;20136;-48
2021/06/17 04:46:01;;;;;;;15.63;9.77;;;;;;;;;;5027550;28;20347;-47
2021/06/17 04:48:33;;;;;;;14.05;9.63;;;;;;;;;;5016079;28;20344;-47
2021/06/17 04:50:59;;;;;;;13.35;9.10;;;;;;;;;;5021858;28;20477;-48
2021/06/17 04:53:25;;;;;;;13.88;9.35;;;;;;;;;;5031188;28;20100;-48
2021/06/17 04:55:52;;;;;;;14.50;9.43;;;;;;;;;;5025373;28;20081;-49
2021/06/17 04:58:19;;;;;;;11.73;8.32;;;;;;;;;;5015487;28;20026;-48
2021/06/17 05:00:45;;;;;;;13.82;9.73;;;;;;;;;;5019154;28;20472;-49
2021/06/17 05:03:11;;;;;;;13.90;9.57;;;;;;;;;;5015383;28;20063;-53
2021/06/17 05:05:37;;;;;;;13.43;8.75;;;;;;;;;;5016452;28;20033;-48
2021/06/17 05:10:57;;;;;;;11.05;8.90;;;;;;;;;;5014457;28;20044;-47
2021/06/17 05:13:32;;;;;;;15.95;9.43;;;;;;;;;;5014786;28;20049;-50
2021/06/17 05:16:00;;;;;;;13.95;8.02;;;;;;;;;;5012962;28;20041;-52
2021/06/17 05:18:28;;;;;;;13.55;8.88;;;;;;;;;;5014759;28;20066;-48
2021/06/17 05:20:54;;;;;;;13.60;9.43;;;;;;;;;;5015452;28;20034;-48
2021/06/17 05:23:21;;;;;;;15.52;8.50;;;;;;;;;;5018652;28;20101;-47
2021/06/17 05:25:48;;;;;;;16.88;10.10;;;;;;;;;;5008192;28;20128;-48
2021/06/17 05:28:14;;;;;;;11.90;9.30;;;;;;;;;;5000734;28;20046;-47
2021/06/17 05:30:42;;;;;;;11.38;8.48;;;;;;;;;;5033687;28;20021;-47
2021/06/17 05:33:08;;;;;;;10.90;8.63;;;;;;;;;;5025417;28;20604;-48
2021/06/17 05:35:34;;;;;;;14.73;9.35;;;;;;;;;;5033424;28;20033;-48
2021/06/17 05:38:00;;;;;;;13.18;9.63;;;;;;;;;;5033857;28;20474;-48
2021/06/17 05:40:26;;;;;;;14.10;9.77;;;;;;;;;;5023286;28;20022;-48
2021/06/17 05:42:52;;;;;;;13.05;8.48;;;;;;;;;;5020481;28;20041;-48
2021/06/17 05:45:18;;;;;;;11.55;9.20;;;;;;;;;;5018194;28;20037;-47
2021/06/17 05:47:44;;;;;;;13.35;8.93;;;;;;;;;;5026153;28;20075;-49
2021/06/17 05:50:10;;;;;;;16.40;9.70;;;;;;;;;;5030219;28;20025;-49
2021/06/17 05:52:36;;;;;;;12.27;9.70;;;;;;;;;;5033766;28;20101;-47
2021/06/17 05:55:02;;;;;;;13.45;9.00;;;;;;;;;;5032462;28;20022;-48
2021/06/17 05:57:28;;;;;;;12.20;9.30;;;;;;;;;;5027161;28;20029;-48
2021/06/17 05:59:54;;;;;;;14.48;9.35;;;;;;;;;;5032993;28;20100;-49
2021/06/17 06:02:23;;;;;;;12.68;9.77;;;;;;;;;;5027483;28;20059;-48
2021/06/17 06:04:50;;;;;;;14.45;9.52;;;;;;;;;;5019566;28;20083;-48
2021/06/17 06:07:17;;;;;;;13.75;10.35;;;;;;;;;;5027463;28;20041;-47
2021/06/17 06:09:43;;;;;;;15.05;9.57;;;;;;;;;;5033877;28;20728;-49
2021/06/17 06:12:10;;;;;;;13.82;9.32;;;;;;;;;;5023729;28;20033;-48
2021/06/17 06:14:36;;;;;;;13.80;8.82;;;;;;;;;;5021280;28;20534;-48
2021/06/17 06:17:02;;;;;;;13.50;8.68;;;;;;;;;;5032636;28;20397;-47
2021/06/17 06:19:30;;;;;;;13.10;8.63;;;;;;;;;;5030176;28;20474;-50
2021/06/17 06:21:56;;;;;;;13.52;8.63;;;;;;;;;;5023743;28;20056;-50
2021/06/17 06:24:22;;;;;;;12.93;8.90;;;;;;;;;;5023137;28;20129;-48
2021/06/17 06:26:48;;;;;;;18.83;9.38;;;;;;;;;;5028204;28;20385;-47
2021/06/17 06:29:14;;;;;;;13.60;9.10;;;;;;;;;;5024684;28;20025;-48
2021/06/17 06:31:41;;;;;;;17.15;9.75;;;;;;;;;;5021340;28;20038;-48
2021/06/17 06:34:07;;;;;;;12.60;8.55;;;;;;;;;;5021801;28;20096;-48
2021/06/17 06:36:33;;;;;;;13.05;8.40;;;;;;;;;;5027209;28;20398;-48
2021/06/17 06:38:59;;;;;;;18.80;9.20;;;;;;;;;;5021278;28;20172;-48
2021/06/17 06:41:25;;;;;;;14.30;9.43;;;;;;;;;;5014107;28;20030;-48
2021/06/17 06:43:51;;;;;;;15.05;8.95;;;;;;;;;;5024852;28;20033;-48
2021/06/17 06:46:17;;;;;;;11.50;8.30;;;;;;;;;;5032780;28;20029;-47
2021/06/17 06:48:43;;;;;;;18.00;8.55;;;;;;;;;;5012512;28;20041;-49
2021/06/17 06:51:09;;;;;;;16.45;8.43;;;;;;;;;;5020900;28;20052;-48
2021/06/17 06:53:35;;;;;;;15.32;8.43;;;;;;;;;;5032225;28;20038;-49
2021/06/17 06:56:01;;;;;;;10.00;8.00;;;;;;;;;;5026320;28;20021;-49
2021/06/17 06:58:27;;;;;;;13.48;8.18;;;;;;;;;;5032837;28;20036;-54
2021/06/17 07:00:53;;;;;;;17.02;8.48;;;;;;;;;;5027233;28;20028;-48
2021/06/17 07:03:19;;;;;;;12.05;8.63;;;;;;;;;;5013816;28;20033;-52
2021/06/17 07:05:45;;;;;;;13.10;8.57;;;;;;;;;;5025378;28;20061;-50
2021/06/17 07:08:11;;;;;;;12.80;8.18;;;;;;;;;;5027247;28;20064;-50
2021/06/17 07:10:43;;;;;;;11.00;7.85;;;;;;;;;;5021902;28;20032;-48
2021/06/17 07:13:09;;;;;;;9.85;8.10;;;;;;;;;;5028314;28;20101;-48
2021/06/17 07:15:35;;;;;;;9.88;7.43;;;;;;;;;;5032094;28;20032;-48
2021/06/17 07:18:01;;;;;;;13.65;8.13;;;;;;;;;;5027485;28;20435;-48
2021/06/17 07:20:27;;;;;;;12.95;7.72;;;;;;;;;;5021938;28;20117;-50
2021/06/17 07:22:55;;;;;;;9.70;6.88;;;;;;;;;;5021006;28;20057;-48
2021/06/17 07:25:22;;;;;;;17.23;7.68;;;;;;;;;;5015935;28;20045;-49
2021/06/17 07:27:48;;;;;;;14.73;7.72;;;;;;;;;;5021343;28;20416;-48
2021/06/17 07:30:14;;;;;;;13.95;7.90;;;;;;;;;;5032377;28;20034;-48
2021/06/17 07:32:41;;;;;;;10.38;7.10;;;;;;;;;;5024729;28;20120;-49
2021/06/17 07:35:07;;;;;;;16.95;7.70;;;;;;;;;;5007107;28;20080;-52
2021/06/17 07:37:33;;;;;;;10.43;6.80;;;;;;;;;;5025544;28;20026;-51
2021/06/17 07:39:59;;;;;;;13.75;7.00;;;;;;;;;;5020471;28;20080;-54
2021/06/17 07:42:25;;;;;;;13.27;6.70;;;;;;;;;;5021342;28;20026;-48
2021/06/17 07:44:51;;;;;;;8.50;6.40;;;;;;;;;;5017726;28;20030;-51
2021/06/17 07:47:18;;;;;;;13.45;7.60;;;;;;;;;;5015067;28;20393;-48
2021/06/17 07:49:44;;;;;;;11.30;7.07;;;;;;;;;;5016016;28;20032;-48
2021/06/17 07:52:10;;;;;;;10.82;7.60;;;;;;;;;;5024751;28;20025;-49
2021/06/17 07:54:36;;;;;;;9.95;7.00;;;;;;;;;;5018357;28;20045;-48
2021/06/17 07:57:02;;;;;;;10.88;6.75;;;;;;;;;;5028330;28;20049;-49
2021/06/17 07:59:28;;;;;;;11.80;7.35;;;;;;;;;;5030008;28;20026;-49
2021/06/17 08:01:55;;;;;;;7.13;5.97;;;;;;;;;;5020270;28;20447;-48
2021/06/17 08:04:21;;;;;;;9.75;6.63;;;;;;;;;;5023838;28;20116;-48
2021/06/17 08:06:47;;;;;;;13.20;6.93;;;;;;;;;;5016577;28;20030;-49
2021/06/17 08:09:19;;;;;;;10.95;6.70;;;;;;;;;;5029798;28;20079;-50
2021/06/17 08:11:46;;;;;;;9.57;6.63;;;;;;;;;;5021104;28;20719;-51
2021/06/17 08:14:12;;;;;;;8.27;6.15;;;;;;;;;;5022439;28;20030;-52
2021/06/17 08:16:38;;;;;;;9.02;6.63;;;;;;;;;;5016590;28;20084;-49
2021/06/17 08:19:04;;;;;;;9.40;6.25;;;;;;;;;;5017191;28;20040;-54
2021/06/17 08:21:31;;;;;;;10.95;6.88;;;;;;;;;;5024335;28;20013;-53
2021/06/17 08:23:57;;;;;;;10.65;6.20;;;;;;;;;;5025332;28;20049;-48
2021/06/17 08:26:23;;;;;;;9.55;6.95;;;;;;;;;;5022785;28;20132;-47
2021/06/17 08:28:49;;;;;;;7.47;5.72;;;;;;;;;;5035769;28;20396;-48
2021/06/17 08:31:15;;;;;;;8.57;6.00;;;;;;;;;;5024455;28;20029;-48
2021/06/17 08:33:41;;;;;;;10.05;5.38;;;;;;;;;;5022986;28;20041;-48
2021/06/17 08:36:10;;;;;;;9.95;5.38;;;;;;;;;;5028227;28;20498;-48
2021/06/17 08:38:36;;;;;;;14.25;6.35;;;;;;;;;;5032844;28;20041;-48
2021/06/17 08:41:03;;;;;;;9.38;6.40;;;;;;;;;;5028250;28;20038;-50
2021/06/17 08:43:30;;;;;;;8.60;5.90;;;;;;;;;;5022138;28;20497;-48
2021/06/17 08:45:56;;;;;;;12.98;5.60;;;;;;;;;;5023092;28;20034;-48
2021/06/17 08:48:22;;;;;;;10.48;5.85;;;;;;;;;;5029789;28;20108;-52
2021/06/17 08:50:48;;;;;;;7.50;5.47;;;;;;;;;;5033494;28;20354;-48
2021/06/17 08:53:15;;;;;;;7.60;5.35;;;;;;;;;;5031520;28;20093;-48
2021/06/17 08:55:41;;;;;;;10.43;5.78;;;;;;;;;;5019925;28;20084;-52
2021/06/17 08:58:07;;;;;;;7.43;5.10;;;;;;;;;;5024095;28;20038;-48
2021/06/17 09:00:35;;;;;;;10.05;5.25;;;;;;;;;;5021387;28;20055;-52
2021/06/17 09:03:03;;;;;;;8.35;4.40;;;;;;;;;;5027293;28;20445;-48
2021/06/17 09:05:30;;;;;;;9.75;5.25;;;;;;;;;;5033371;28;20028;-48
2021/06/17 09:07:56;;;;;;;9.35;5.43;;;;;;;;;;5021376;28;20425;-48
2021/06/17 09:10:22;;;;;;;8.13;5.05;;;;;;;;;;5033965;28;20465;-48
2021/06/17 09:12:49;;;;;;;6.97;4.85;;;;;;;;;;5033726;28;20049;-48
2021/06/17 09:15:27;;;;;;;10.50;5.50;;;;;;;;;;5033719;28;20319;-48
2021/06/17 09:18:08;;;;;;;9.00;5.22;;;;;;;;;;5032241;28;20074;-49
2021/06/17 09:20:34;;;;;;;9.40;4.60;;;;;;;;;;5021822;28;20030;-47
2021/06/17 09:23:16;;;;;;;7.57;4.68;;;;;;;;;;5023752;28;20505;-48
2021/06/17 09:25:49;;;;;;;8.07;4.60;;;;;;;;;;5015913;28;20071;-49
2021/06/17 09:28:15;;;;;;;5.50;4.43;;;;;;;;;;5015627;28;20045;-48
2021/06/17 09:30:41;;;;;;;7.47;4.68;;;;;;;;;;5028011;28;20393;-48
2021/06/17 09:33:11;;;;;;;9.50;5.07;;;;;;;;;;5019198;28;20049;-48
2021/06/17 09:35:47;;;;;;;9.15;4.60;;;;;;;;;;5027947;28;20028;-48
2021/06/17 09:38:13;;;;;;;7.70;4.53;;;;;;;;;;5016185;28;20409;-48
2021/06/17 09:40:45;;;;;;;10.65;5.00;;;;;;;;;;5017584;28;20509;-51
2021/06/17 09:43:19;;;;;;;7.25;4.05;;;;;;;;;;5032756;28;20383;-49
2021/06/17 09:45:52;;;;;;;6.80;4.28;;;;;;;;;;5032828;28;20408;-52
2021/06/17 09:48:32;;;;;;;7.18;4.32;;;;;;;;;;5030445;28;20120;-52
2021/06/17 09:50:58;;;;;;;5.85;4.40;;;;;;;;;;5033074;28;20053;-49
2021/06/17 09:53:25;;;;;;;9.38;3.75;;;;;;;;;;5032935;28;20045;-49
2021/06/17 09:55:51;;;;;;;5.03;3.72;;;;;;;;;;5032689;28;20025;-48
2021/06/17 09:58:41;;;;;;;7.45;4.15;;;;;;;;;;5033813;28;20041;-48
2021/06/17 10:01:13;;;;;;;7.53;4.13;;;;;;;;;;5019065;28;20032;-51
2021/06/17 10:03:42;;;;;;;7.25;4.20;;;;;;;;;;5027898;28;20057;-51
2021/06/17 10:06:21;;;;;;;8.15;3.90;;;;;;;;;;5032385;28;20049;-50
2021/06/17 10:08:47;;;;;;;7.18;3.78;;;;;;;;;;5029119;28;20075;-50
2021/06/17 10:11:14;;;;;;;5.70;3.72;;;;;;;;;;5032751;28;20029;-48
2021/06/17 10:13:41;;;;;;;5.10;3.55;;;;;;;;;;5029388;28;20033;-48
2021/06/17 10:16:07;;;;;;;7.38;3.85;;;;;;;;;;5020294;28;20037;-50
2021/06/17 10:18:35;;;;;;;5.53;3.53;;;;;;;;;;5026102;28;20034;-47
2021/06/17 10:21:01;;;;;;;6.53;3.60;;;;;;;;;;5023972;28;20036;-47
2021/06/17 10:23:27;;;;;;;4.07;3.05;;;;;;;;;;5021449;28;20482;-47
2021/06/17 10:25:53;;;;;;;5.53;3.22;;;;;;;;;;5022418;28;20487;-47
2021/06/17 10:28:37;;;;;;;5.68;2.95;;;;;;;;;;5019146;28;20160;-48
2021/06/17 10:31:03;;;;;;;3.83;3.00;;;;;;;;;;5017599;28;20101;-49
2021/06/17 10:33:31;;;;;;;9.65;3.78;;;;;;;;;;5005149;28;20121;-50
2021/06/17 10:36:16;;;;;;;8.73;3.58;;;;;;;;;;5021903;28;20032;-48
2021/06/17 10:39:02;;;;;;;7.53;5.00;;;;;;;;;;5008717;28;20112;-53
2021/06/17 10:41:46;;;;;;;5.47;3.58;;;;;;;;;;5012787;28;20037;-50
2021/06/17 10:44:31;;;;;;;7.30;3.85;;;;;;;;;;5024540;28;20155;-53
2021/06/17 10:46:57;;;;;;;7.82;3.55;;;;;;;;;;5021994;28;20102;-51
2021/06/17 10:49:42;;;;;;;4.88;3.25;;;;;;;;;;5032367;28;20058;-50
2021/06/17 10:52:24;;;;;;;9.95;3.83;;;;;;;;;;5032273;28;20093;-49
2021/06/17 10:55:07;;;;;;;4.18;3.17;;;;;;;;;;5020713;28;20112;-49
2021/06/17 10:57:49;;;;;;;5.85;3.33;;;;;;;;;;5012406;28;20037;-49
2021/06/17 11:02:57;;;;;;;4.38;2.72;;;;;;;;;;5019612;28;20040;-50
2021/06/17 11:05:33;;;;;;;4.97;3.08;;;;;;;;;;5019731;28;20033;-53
2021/06/17 11:08:15;;;;;;;4.28;2.92;;;;;;;;;;5031875;28;20026;-51
2021/06/17 11:10:45;;;;;;;3.55;3.20;;;;;;;;;;5032162;28;20025;-50
2021/06/17 11:13:26;;;;;;;5.82;3.08;;;;;;;;;;5024963;28;20100;-50
2021/06/17 11:15:52;;;;;;;3.95;2.95;;;;;;;;;;5021539;28;20025;-48
2021/06/17 11:18:38;;;;;;;9.82;2.90;;;;;;;;;;5023969;28;20037;-50
2021/06/17 11:21:04;;;;;;;5.40;3.42;;;;;;;;;;5030307;28;20088;-47
2021/06/17 11:23:31;;;;;;;4.57;3.13;;;;;;;;;;5023482;28;20516;-51
2021/06/17 11:25:59;;;;;;;7.20;3.22;;;;;;;;;;5024289;28;20108;-52
2021/06/17 11:28:46;;;;;;;7.40;2.95;;;;;;;;;;5012041;28;20025;-53
2021/06/17 11:31:12;;;;;;;4.28;3.10;;;;;;;;;;5018123;28;20518;-51
2021/06/17 11:33:43;;;;;;;3.97;2.72;;;;;;;;;;5010025;28;20038;-49
2021/06/17 11:36:12;;;;;;;6.45;2.70;;;;;;;;;;5029809;28;20116;-52
2021/06/17 11:38:38;;;;;;;3.35;2.83;;;;;;;;;;5012883;28;20061;-50
2021/06/17 11:41:10;;;;;;;7.82;2.70;;;;;;;;;;5017979;28;20409;-50
2021/06/17 11:43:36;;;;;;;5.65;2.67;;;;;;;;;;5013456;28;20108;-49
2021/06/17 11:46:02;;;;;;;6.55;3.22;;;;;;;;;;5020807;28;20061;-49
2021/06/17 11:48:29;;;;;;;5.15;2.92;;;;;;;;;;5024170;28;20029;-50
2021/06/17 11:50:55;;;;;;;4.15;2.92;;;;;;;;;;5030155;28;20097;-49
2021/06/17 11:53:22;;;;;;;4.07;2.55;;;;;;;;;;5022653;28;20030;-49
2021/06/17 11:55:49;;;;;;;3.88;2.47;;;;;;;;;;5025104;28;20029;-49
2021/06/17 11:58:15;;;;;;;7.22;2.97;;;;;;;;;;5029287;28;20030;-48
2021/06/17 12:00:42;;;;;;;3.15;2.25;;;;;;;;;;5024442;28;20041;-52
2021/06/17 12:03:22;;;;;;;5.40;2.45;;;;;;;;;;5013336;28;20029;-48
2021/06/17 12:05:48;;;;;;;4.10;2.22;;;;;;;;;;5017249;28;20035;-48
2021/06/17 12:08:14;;;;;;;6.60;3.00;;;;;;;;;;5014361;28;20081;-51
2021/06/17 12:10:42;;;;;;;8.18;2.58;;;;;;;;;;5015476;28;20029;-51
2021/06/17 12:13:09;;;;;;;3.58;2.50;;;;;;;;;;5012163;28;20034;-48
2021/06/17 12:15:40;;;;;;;5.57;2.45;;;;;;;;;;5017037;28;20026;-49
2021/06/17 12:18:08;;;;;;;3.53;1.88;;;;;;;;;;5020936;28;20034;-50
2021/06/17 12:20:36;;;;;;;4.88;2.40;;;;;;;;;;5024477;28;20034;-52
2021/06/17 12:23:02;;;;;;;2.88;2.05;;;;;;;;;;5014081;28;20030;-50
2021/06/17 12:25:31;;;;;;;4.43;2.33;;;;;;;;;;5010076;28;20021;-51
2021/06/17 12:28:00;;;;;;;3.30;2.58;;;;;;;;;;5011818;28;20626;-51
2021/06/17 12:30:27;;;;;;;8.48;2.35;;;;;;;;;;5011851;28;20034;-51
2021/06/17 12:33:01;;;;;;;4.22;2.15;;;;;;;;;;5016733;28;20129;-47
2021/06/17 12:35:27;;;;;;;4.47;2.17;;;;;;;;;;5007359;28;20026;-50
2021/06/17 12:38:02;;;;;;;5.38;2.85;;;;;;;;;;5023781;28;20025;-48
2021/06/17 12:40:29;;;;;;;3.97;2.17;;;;;;;;;;5009435;28;20490;-50
2021/06/17 12:43:07;;;;;;;3.40;2.40;;;;;;;;;;5012013;28;20467;-51
2021/06/17 12:45:35;;;;;;;3.72;2.50;;;;;;;;;;5015633;28;20175;-49
2021/06/17 12:48:07;;;;;;;3.50;2.17;;;;;;;;;;5018582;28;20030;-51
2021/06/17 12:53:18;;;;;;;4.15;2.10;;;;;;;;;;5015073;28;20036;-51
2021/06/17 12:55:47;;;;;;;4.85;2.13;;;;;;;;;;5018846;28;20036;-50
2021/06/17 12:58:15;;;;;;;4.28;2.53;;;;;;;;;;5016636;28;20100;-52
2021/06/17 13:00:54;;;;;;;3.42;2.17;;;;;;;;;;5019568;28;20033;-48
2021/06/17 13:03:24;;;;;;;4.15;1.98;;;;;;;;;;5012602;28;20121;-46
2021/06/17 13:05:52;;;;;;;5.32;2.15;;;;;;;;;;5018630;28;20033;-49
2021/06/17 13:08:21;;;;;;;3.25;2.35;;;;;;;;;;5016758;28;20033;-49
2021/06/17 13:10:51;;;;;;;3.20;2.05;;;;;;;;;;5032150;28;20029;-48
2021/06/17 13:13:19;;;;;;;6.72;2.60;;;;;;;;;;5026668;28;20026;-48
2021/06/17 13:15:45;;;;;;;3.40;2.00;;;;;;;;;;5016574;28;20151;-48
2021/06/17 13:18:12;;;;;;;6.00;2.25;;;;;;;;;;5020203;28;20026;-45
2021/06/17 13:20:41;;;;;;;3.10;1.90;;;;;;;;;;5013867;28;20482;-50
2021/06/17 13:23:12;;;;;;;2.38;1.63;;;;;;;;;;5004797;28;20479;-49
2021/06/17 13:25:38;;;;;;;3.42;1.58;;;;;;;;;;5008107;28;20037;-51
2021/06/17 13:28:06;;;;;;;2.30;1.77;;;;;;;;;;5013038;28;20030;-46
2021/06/17 13:30:33;;;;;;;5.72;1.85;;;;;;;;;;5009803;28;20537;-47
2021/06/17 13:33:02;;;;;;;2.92;1.77;;;;;;;;;;5008623;28;20148;-46
2021/06/17 13:35:28;;;;;;;2.42;1.40;;;;;;;;;;5009375;28;20026;-46
2021/06/17 13:37:54;;;;;;;3.60;1.80;;;;;;;;;;5012915;28;20041;-48
2021/06/17 13:40:21;;;;;;;3.58;1.60;;;;;;;;;;5010226;28;20026;-48
2021/06/17 13:42:52;;;;;;;4.63;1.80;;;;;;;;;;5026727;28;20025;-47
2021/06/17 13:45:18;;;;;;;4.22;1.50;;;;;;;;;;5015796;28;20600;-46
2021/06/17 13:47:44;;;;;;;6.18;1.67;;;;;;;;;;5016858;28;20041;-46
2021/06/17 13:50:11;;;;;;;1.70;1.38;;;;;;;;;;5034382;28;20034;-46
2021/06/17 13:52:37;;;;;;;3.90;1.73;;;;;;;;;;5026036;28;20113;-46
2021/06/17 13:55:06;;;;;;;2.53;1.60;;;;;;;;;;5024161;28;20022;-50
2021/06/17 13:57:32;;;;;;;4.35;1.50;;;;;;;;;;5024440;28;20537;-46
2021/06/17 13:59:58;;;;;;;5.53;1.70;;;;;;;;;;5019771;28;20173;-49
2021/06/17 14:02:24;;;;;;;3.33;1.73;;;;;;;;;;5014882;28;20037;-46
2021/06/17 14:04:51;;;;;;;2.40;1.40;;;;;;;;;;5015902;28;20030;-46
2021/06/17 14:07:17;;;;;;;3.15;1.58;;;;;;;;;;5023377;28;20025;-47
2021/06/17 14:09:43;;;;;;;2.15;1.60;;;;;;;;;;5017486;28;20030;-48
2021/06/17 14:12:09;;;;;;;2.17;1.75;;;;;;;;;;5022424;28;20057;-47
2021/06/17 14:14:35;;;;;;;1.70;1.30;;;;;;;;;;5013719;28;20033;-47
2021/06/17 14:17:01;;;;;;;3.63;1.50;;;;;;;;;;5018860;28;20397;-46
2021/06/17 14:19:27;;;;;;;2.85;1.77;;;;;;;;;;5023395;28;20030;-47
2021/06/17 14:21:53;;;;;;;3.45;1.50;;;;;;;;;;5026845;28;20017;-48
2021/06/17 14:24:19;;;;;;;3.53;1.52;;;;;;;;;;5024525;28;20026;-49
2021/06/17 14:26:47;;;;;;;3.15;1.50;;;;;;;;;;5013544;28;20501;-49
2021/06/17 14:29:13;;;;;;;4.47;1.45;;;;;;;;;;5017154;28;20029;-46
2021/06/17 14:31:39;;;;;;;4.05;1.60;;;;;;;;;;5010160;28;20029;-46
2021/06/17 14:34:08;;;;;;;2.58;1.40;;;;;;;;;;5010939;28;20025;-46
2021/06/17 14:36:34;;;;;;;4.97;1.70;;;;;;;;;;5025510;28;20030;-45
2021/06/17 14:39:00;;;;;;;2.97;1.55;;;;;;;;;;5024439;28;20051;-46
2021/06/17 14:41:27;;;;;;;3.20;2.03;;;;;;;;;;5011800;28;20029;-47
2021/06/17 14:43:53;;;;;;;4.95;2.00;;;;;;;;;;5018235;28;20029;-45
2021/06/17 14:46:19;;;;;;;5.43;2.22;;;;;;;;;;5029259;28;20053;-46
2021/06/17 14:48:48;;;;;;;5.55;2.28;;;;;;;;;;5026702;28;20123;-46
2021/06/17 14:51:14;;;;;;;4.85;2.05;;;;;;;;;;5015442;28;20033;-46